Welcome to La Porte Aviation Services!

An aviation adventure awaits

Current Weather Conditions

Available data for KPPO from the past 2 hours
LA PORTE, IN
Metar
KPPO 110935Z AUTO 23007KT 3SM BR M06/M07 A3011 RMK AO2 SKY OBSCURED T10601068

Connect with us on Facebook!

Facebook By Weblizar Powered By Weblizar